createdAt,value
2017-02-02T00:00:21.007Z,5.52
2017-02-02T00:01:21.050Z,5.35
2017-02-02T00:02:21.064Z,5.48
2017-02-02T00:03:21.075Z,5.5
2017-02-02T00:04:21.013Z,5.5
2017-02-02T00:05:21.036Z,5.49
2017-02-02T00:06:21.054Z,5.41
2017-02-02T00:07:21.019Z,5.32
2017-02-02T00:08:21.035Z,5.45
2017-02-02T00:09:21.643Z,5.5
2017-02-02T00:10:21.046Z,5.48
2017-02-02T00:11:21.036Z,5.56
2017-02-02T00:12:21.028Z,5.56
2017-02-02T00:13:21.036Z,5.48
2017-02-02T00:14:21.004Z,5.41
2017-02-02T00:15:21.069Z,5.48
2017-02-02T00:16:21.025Z,5.5
2017-02-02T00:17:21.033Z,5.46
2017-02-02T00:18:21.031Z,5.5
2017-02-02T00:19:21.035Z,5.57
2017-02-02T00:20:21.140Z,5.56
2017-02-02T00:21:21.041Z,5.64
2017-02-02T00:22:21.041Z,5.4
2017-02-02T00:23:21.042Z,5.55
2017-02-02T00:24:21.032Z,5.56
2017-02-02T00:25:21.021Z,5.59
2017-02-02T00:26:21.058Z,5.59
2017-02-02T00:27:21.029Z,5.52
2017-02-02T00:28:21.037Z,5.48
2017-02-02T00:29:21.027Z,5.55
2017-02-02T00:30:21.068Z,5.59
2017-02-02T00:31:21.035Z,5.55
2017-02-02T00:32:21.036Z,5.57
2017-02-02T00:33:21.039Z,5.59
2017-02-02T00:34:21.032Z,5.63
2017-02-02T00:35:21.064Z,5.7
2017-02-02T00:36:21.058Z,5.63
2017-02-02T00:37:21.185Z,5.63
2017-02-02T00:38:21.036Z,5.52
2017-02-02T00:39:21.052Z,5.78
2017-02-02T00:40:21.044Z,5.68
2017-02-02T00:41:21.039Z,5.64
2017-02-02T00:42:21.050Z,5.83
2017-02-02T00:43:21.103Z,5.66
2017-02-02T00:44:21.080Z,5.86
2017-02-02T00:45:21.052Z,5.7
2017-02-02T00:46:21.048Z,5.75
2017-02-02T00:47:21.050Z,5.68
2017-02-02T00:48:21.056Z,5.66
2017-02-02T00:49:21.172Z,5.73
2017-02-02T00:50:21.202Z,5.85
2017-02-02T00:51:21.153Z,5.81
2017-02-02T00:52:21.057Z,5.82
2017-02-02T00:53:21.091Z,5.92
2017-02-02T00:54:21.043Z,5.73
2017-02-02T00:55:21.041Z,5.81
2017-02-02T00:56:21.041Z,6
2017-02-02T00:57:21.044Z,5.92
2017-02-02T00:58:21.054Z,5.78
2017-02-02T00:59:21.054Z,5.88
2017-02-02T01:00:21.072Z,5.95
2017-02-02T01:01:21.076Z,5.82
2017-02-02T01:02:21.068Z,6.01
2017-02-02T01:03:21.052Z,5.96
2017-02-02T01:04:21.057Z,5.96
2017-02-02T01:05:21.067Z,5.96
2017-02-02T01:06:21.058Z,5.89
2017-02-02T01:07:21.064Z,5.85
2017-02-02T01:08:21.069Z,5.92
2017-02-02T01:09:21.049Z,6.01
2017-02-02T01:10:21.097Z,5.83
2017-02-02T01:11:21.088Z,5.82
2017-02-02T01:12:21.067Z,5.78
2017-02-02T01:13:21.075Z,5.82
2017-02-02T01:14:21.093Z,5.96
2017-02-02T01:15:21.062Z,5.88
2017-02-02T01:16:21.075Z,6.03
2017-02-02T01:17:21.073Z,5.85
2017-02-02T01:18:21.061Z,5.98
2017-02-02T01:19:21.062Z,6
2017-02-02T01:20:21.052Z,5.95
2017-02-02T01:21:21.057Z,5.96
2017-02-02T01:22:21.067Z,6
2017-02-02T01:23:21.074Z,6
2017-02-02T01:24:21.072Z,5.85
2017-02-02T01:25:21.073Z,5.93
2017-02-02T01:26:21.077Z,5.92
2017-02-02T01:27:21.091Z,5.88
2017-02-02T01:28:21.074Z,6.01
2017-02-02T01:29:21.118Z,5.89
2017-02-02T01:30:21.109Z,5.95
2017-02-02T01:31:21.100Z,5.92
2017-02-02T01:32:21.075Z,5.83
2017-02-02T01:33:21.168Z,5.85
2017-02-02T01:34:21.080Z,5.92
2017-02-02T01:35:21.092Z,5.74
2017-02-02T01:36:21.086Z,5.86
2017-02-02T01:37:21.078Z,5.92
2017-02-02T01:38:21.080Z,5.95
2017-02-02T01:39:21.079Z,5.95
2017-02-02T01:40:21.127Z,5.98
2017-02-02T01:41:21.097Z,6.21
2017-02-02T01:42:21.090Z,5.92
2017-02-02T01:43:21.074Z,5.89
2017-02-02T01:44:21.141Z,5.91
2017-02-02T01:45:21.088Z,5.93
2017-02-02T01:46:21.096Z,5.96
2017-02-02T01:47:21.107Z,5.93
2017-02-02T01:48:21.085Z,5.77
2017-02-02T01:49:21.104Z,6.04
2017-02-02T01:50:21.095Z,5.92
2017-02-02T01:51:21.105Z,5.93
2017-02-02T01:52:21.098Z,6.07
2017-02-02T01:53:21.093Z,6.01
2017-02-02T01:54:21.096Z,6.13
2017-02-02T01:55:21.137Z,6.04
2017-02-02T01:56:21.104Z,6
2017-02-02T01:57:21.105Z,6.1
2017-02-02T01:58:21.096Z,6.21
2017-02-02T01:59:21.113Z,5.95
2017-02-02T02:00:21.106Z,6.18
2017-02-02T02:01:21.109Z,5.96
2017-02-02T02:02:21.104Z,6.03
2017-02-02T02:03:21.093Z,5.96
2017-02-02T02:04:21.105Z,6.09
2017-02-02T02:05:21.109Z,6.07
2017-02-02T02:06:21.101Z,5.93
2017-02-02T02:07:21.108Z,6.07
2017-02-02T02:08:21.111Z,6.07
2017-02-02T02:09:21.119Z,6.22
2017-02-02T02:10:21.125Z,5.92
2017-02-02T02:11:21.093Z,6.19
2017-02-02T02:12:21.105Z,6
2017-02-02T02:13:21.093Z,6.09
2017-02-02T02:14:21.110Z,6.13
2017-02-02T02:15:21.109Z,5.98
2017-02-02T02:16:21.109Z,6.13
2017-02-02T02:17:21.203Z,6.13
2017-02-02T02:18:21.109Z,6.26
2017-02-02T02:19:21.107Z,6.29
2017-02-02T02:20:21.138Z,6.21
2017-02-02T02:21:21.129Z,6.14
2017-02-02T02:22:21.109Z,6.16
2017-02-02T02:23:21.122Z,6.14
2017-02-02T02:24:21.107Z,6.3
2017-02-02T02:25:21.132Z,6.06
2017-02-02T02:26:21.134Z,6.13
2017-02-02T02:27:21.119Z,6.14
2017-02-02T02:28:21.146Z,6.14
2017-02-02T02:29:21.114Z,6.13
2017-02-02T02:30:21.129Z,6.25
2017-02-02T02:31:21.124Z,6.26
2017-02-02T02:32:21.127Z,6.22
2017-02-02T02:33:21.135Z,6.21
2017-02-02T02:34:21.152Z,6.13
2017-02-02T02:35:21.128Z,6.09
2017-02-02T02:36:21.142Z,6.1
2017-02-02T02:37:21.125Z,6.26
2017-02-02T02:38:21.146Z,6.19
2017-02-02T02:39:21.122Z,6.25
2017-02-02T02:40:21.151Z,6.29
2017-02-02T02:41:21.127Z,6.06
2017-02-02T02:42:21.155Z,6.26
2017-02-02T02:43:21.173Z,6.36
2017-02-02T02:44:21.140Z,6.25
2017-02-02T02:45:21.132Z,6.26
2017-02-02T02:46:21.136Z,6.33
2017-02-02T02:47:21.159Z,6.18
2017-02-02T02:48:21.162Z,6.25
2017-02-02T02:49:21.139Z,6.32
2017-02-02T02:50:21.165Z,6.16
2017-02-02T02:51:21.129Z,6.01
2017-02-02T02:52:21.165Z,6.19
2017-02-02T02:53:21.143Z,6.25
2017-02-02T02:54:21.150Z,6.22
2017-02-02T02:55:21.137Z,6.19
2017-02-02T02:56:21.148Z,6.14
2017-02-02T02:57:21.136Z,6.11
2017-02-02T02:58:21.164Z,6.18
2017-02-02T02:59:21.151Z,6.19
2017-02-02T03:00:21.152Z,6.32
2017-02-02T03:01:21.151Z,6.21
2017-02-02T03:02:21.173Z,6.41
2017-02-02T03:03:21.132Z,6.06
2017-02-02T03:04:21.158Z,6.16
2017-02-02T03:05:21.160Z,6.18
2017-02-02T03:06:21.168Z,6.33
2017-02-02T03:07:21.154Z,6.21
2017-02-02T03:08:21.138Z,6.19
2017-02-02T03:09:21.147Z,6.03
2017-02-02T03:10:21.155Z,6.07
2017-02-02T03:11:21.189Z,6.33
2017-02-02T03:12:21.164Z,6
2017-02-02T03:13:21.144Z,6.44
2017-02-02T03:14:21.153Z,6.11
2017-02-02T03:15:21.172Z,6.16
2017-02-02T03:16:21.177Z,6.28
2017-02-02T03:17:21.158Z,6.18
2017-02-02T03:18:21.146Z,6.19
2017-02-02T03:19:21.147Z,6.01
2017-02-02T03:20:21.155Z,6.13
2017-02-02T03:21:21.404Z,6.19
2017-02-02T03:22:21.151Z,6.18
2017-02-02T03:23:21.141Z,6.14
2017-02-02T03:24:21.159Z,6.21
2017-02-02T03:25:21.153Z,6.25
2017-02-02T03:26:21.161Z,6.3
2017-02-02T03:27:21.164Z,6.21
2017-02-02T03:28:21.185Z,6.01
2017-02-02T03:29:21.178Z,6.46
2017-02-02T03:30:21.161Z,6.26
2017-02-02T03:31:21.215Z,6.19
2017-02-02T03:32:21.166Z,6.21
2017-02-02T03:33:21.179Z,6.29
2017-02-02T03:34:21.181Z,6.25
2017-02-02T03:35:21.219Z,6.43
2017-02-02T03:36:21.199Z,6.36
2017-02-02T03:37:21.187Z,6.21
2017-02-02T03:38:21.187Z,6.21
2017-02-02T03:39:21.172Z,6.29
2017-02-02T03:40:21.173Z,6.26
2017-02-02T03:41:21.185Z,6.41
2017-02-02T03:42:21.181Z,6.19
2017-02-02T03:43:21.161Z,6.3
2017-02-02T03:44:21.162Z,6.3
2017-02-02T03:45:21.186Z,6.26
2017-02-02T03:46:21.203Z,6.29
2017-02-02T03:47:21.167Z,6.26
2017-02-02T03:48:21.172Z,6.19
2017-02-02T03:49:21.180Z,6.3
2017-02-02T03:50:21.171Z,6.22
2017-02-02T03:51:21.179Z,6.1
2017-02-02T03:52:21.178Z,6.18
2017-02-02T03:53:21.181Z,6.21
2017-02-02T03:54:21.177Z,6.29
2017-02-02T03:55:21.199Z,6.18
2017-02-02T03:56:21.171Z,6.21
2017-02-02T03:57:21.178Z,6.13
2017-02-02T03:58:21.169Z,6.18
2017-02-02T03:59:21.194Z,6.14
2017-02-02T04:00:21.192Z,6.09
2017-02-02T04:01:21.211Z,6.19
2017-02-02T04:02:21.185Z,6.11
2017-02-02T04:03:21.194Z,6.14
2017-02-02T04:04:21.192Z,5.88
2017-02-02T04:05:21.190Z,5.96
2017-02-02T04:06:21.192Z,5.89
2017-02-02T04:07:21.226Z,5.83
2017-02-02T04:08:21.192Z,5.86
2017-02-02T04:09:21.186Z,5.88
2017-02-02T04:10:21.192Z,5.67
2017-02-02T04:11:21.196Z,5.82
2017-02-02T04:12:21.197Z,5.7
2017-02-02T04:13:21.198Z,5.74
2017-02-02T04:14:21.225Z,5.73
2017-02-02T04:15:21.211Z,5.59
2017-02-02T04:16:21.208Z,5.75
2017-02-02T04:17:21.205Z,5.78
2017-02-02T04:18:21.259Z,5.75
2017-02-02T04:19:21.200Z,5.92
2017-02-02T04:20:21.201Z,5.74
2017-02-02T04:21:21.189Z,5.68
2017-02-02T04:22:21.192Z,5.82
2017-02-02T04:23:21.193Z,5.91
2017-02-02T04:24:21.190Z,5.71
2017-02-02T04:25:21.192Z,5.86
2017-02-02T04:26:21.214Z,6.01
2017-02-02T04:27:21.253Z,5.83
2017-02-02T04:28:21.213Z,5.88
2017-02-02T04:29:21.201Z,5.92
2017-02-02T04:30:21.216Z,5.86
2017-02-02T04:31:21.216Z,6.06
2017-02-02T04:32:21.243Z,6.07
2017-02-02T04:33:21.208Z,6.03
2017-02-02T04:34:21.220Z,5.95
2017-02-02T04:35:21.202Z,5.98
2017-02-02T04:36:21.222Z,6.06
2017-02-02T04:37:21.239Z,5.98
2017-02-02T04:38:21.219Z,6.03
2017-02-02T04:39:21.230Z,6.07
2017-02-02T04:40:21.208Z,6
2017-02-02T04:41:21.234Z,6.07
2017-02-02T04:42:21.224Z,6.14
2017-02-02T04:43:21.212Z,6.09
2017-02-02T04:44:21.225Z,6.16
2017-02-02T04:45:21.221Z,5.98
2017-02-02T04:46:21.217Z,6.18
2017-02-02T04:47:21.256Z,6.32
2017-02-02T04:48:21.231Z,6.03
2017-02-02T04:49:30.815Z,6.07
2017-02-02T04:50:21.219Z,6.25
2017-02-02T04:51:21.222Z,6.35
2017-02-02T04:52:21.225Z,6.1
2017-02-02T04:53:21.230Z,6.11
2017-02-02T04:54:21.230Z,6.16
2017-02-02T04:55:21.220Z,6.21
2017-02-02T04:56:21.230Z,5.96
2017-02-02T04:57:21.220Z,6.14
2017-02-02T04:58:21.243Z,6.33
2017-02-02T04:59:21.214Z,5.95
2017-02-02T05:00:21.228Z,5.92
2017-02-02T05:01:21.216Z,5.89
2017-02-02T05:02:21.214Z,5.93
2017-02-02T05:03:21.242Z,5.86
2017-02-02T05:04:21.221Z,6
2017-02-02T05:05:21.257Z,5.95
2017-02-02T05:06:21.232Z,5.92
2017-02-02T05:07:21.294Z,5.81
2017-02-02T05:08:21.240Z,5.88
2017-02-02T05:09:21.221Z,5.95
2017-02-02T05:10:21.251Z,5.73
2017-02-02T05:11:21.227Z,5.73
2017-02-02T05:12:21.242Z,5.77
2017-02-02T05:13:21.250Z,5.63
2017-02-02T05:14:21.241Z,5.63
2017-02-02T05:15:21.238Z,5.55
2017-02-02T05:16:21.243Z,5.48
2017-02-02T05:17:21.223Z,5.68
2017-02-02T05:18:21.231Z,5.67
2017-02-02T05:19:21.241Z,5.68
2017-02-02T05:20:21.226Z,5.48
2017-02-02T05:21:21.249Z,5.75
2017-02-02T05:22:21.272Z,5.71
2017-02-02T05:23:21.251Z,5.77
2017-02-02T05:24:21.268Z,5.75
2017-02-02T05:25:21.262Z,5.73
2017-02-02T05:26:21.240Z,5.81
2017-02-02T05:27:21.257Z,5.63
2017-02-02T05:28:21.252Z,5.64
2017-02-02T05:29:21.246Z,5.49
2017-02-02T05:30:21.256Z,5.67
2017-02-02T05:31:21.251Z,5.74
2017-02-02T05:32:21.253Z,5.81
2017-02-02T05:33:21.307Z,5.68
2017-02-02T05:34:21.292Z,5.57
2017-02-02T05:35:21.254Z,5.37
2017-02-02T05:36:21.275Z,5.59
2017-02-02T05:37:21.268Z,5.59
2017-02-02T05:38:21.246Z,5.34
2017-02-02T05:39:21.266Z,5.35
2017-02-02T05:40:21.273Z,5.46
2017-02-02T05:41:21.254Z,5.38
2017-02-02T05:42:21.248Z,5.28
2017-02-02T05:43:21.268Z,5.28
2017-02-02T05:44:21.265Z,5.2
2017-02-02T05:45:21.253Z,5.3
2017-02-02T05:46:21.281Z,5.12
2017-02-02T05:47:21.257Z,5.19
2017-02-02T05:48:21.263Z,5.07
2017-02-02T05:49:21.263Z,5.07
2017-02-02T05:50:21.276Z,5.13
2017-02-02T05:51:21.260Z,4.98
2017-02-02T05:52:21.274Z,4.99
2017-02-02T05:53:21.257Z,5.05
2017-02-02T05:54:21.274Z,5.01
2017-02-02T05:55:21.252Z,4.89
2017-02-02T05:56:21.264Z,4.94
2017-02-02T05:57:21.258Z,4.96
2017-02-02T05:58:21.278Z,5.04
2017-02-02T05:59:21.262Z,4.84
2017-02-02T06:00:21.293Z,4.77
2017-02-02T06:01:21.272Z,4.73
2017-02-02T06:02:21.265Z,4.7
2017-02-02T06:03:21.274Z,4.64
2017-02-02T06:04:21.265Z,4.75
2017-02-02T06:05:21.270Z,4.69
2017-02-02T06:06:21.277Z,4.69
2017-02-02T06:07:21.275Z,4.84
2017-02-02T06:08:21.289Z,4.62
2017-02-02T06:09:21.267Z,4.55
2017-02-02T06:10:21.284Z,4.67
2017-02-02T06:11:21.277Z,4.52
2017-02-02T06:12:21.298Z,4.58
2017-02-02T06:13:21.275Z,4.5
2017-02-02T06:14:21.290Z,4.44
2017-02-02T06:15:21.279Z,4.47
2017-02-02T06:16:21.283Z,4.36
2017-02-02T06:17:21.299Z,4.43
2017-02-02T06:18:21.294Z,4.37
2017-02-02T06:19:21.277Z,4.43
2017-02-02T06:20:21.284Z,4.44
2017-02-02T06:21:21.319Z,4.29
2017-02-02T06:22:21.294Z,4.4
2017-02-02T06:23:21.292Z,4.42
2017-02-02T06:24:21.303Z,4.42
2017-02-02T06:25:21.303Z,4.36
2017-02-02T06:26:21.281Z,4.28
2017-02-02T06:27:21.313Z,4.29
2017-02-02T06:28:21.284Z,4.32
2017-02-02T06:29:21.316Z,4.25
2017-02-02T06:30:21.289Z,4.22
2017-02-02T06:31:21.315Z,4.15
2017-02-02T06:32:21.319Z,4.21
2017-02-02T06:33:21.297Z,4.12
2017-02-02T06:34:21.306Z,4.14
2017-02-02T06:35:21.323Z,4.19
2017-02-02T06:36:21.328Z,4.1
2017-02-02T06:37:21.295Z,4.01
2017-02-02T06:38:21.301Z,4.19
2017-02-02T06:39:21.332Z,4.08
2017-02-02T06:40:21.316Z,4.16
2017-02-02T06:41:21.320Z,4.08
2017-02-02T06:42:21.303Z,4.16
2017-02-02T06:43:21.311Z,4.1
2017-02-02T06:44:21.316Z,4.12
2017-02-02T06:45:21.314Z,4.08
2017-02-02T06:46:21.306Z,4.08
2017-02-02T06:47:21.300Z,4.01
2017-02-02T06:48:21.308Z,4.14
2017-02-02T06:49:21.312Z,4.06
2017-02-02T06:50:21.311Z,3.97
2017-02-02T06:51:21.297Z,3.98
2017-02-02T06:52:21.346Z,4.07
2017-02-02T06:53:21.327Z,3.98
2017-02-02T06:54:21.314Z,4.06
2017-02-02T06:55:21.757Z,3.89
2017-02-02T06:56:21.396Z,3.97
2017-02-02T06:57:21.324Z,4.07
2017-02-02T06:58:21.349Z,4.03
2017-02-02T06:59:21.339Z,3.94
2017-02-02T07:00:21.377Z,4.03
2017-02-02T07:01:21.341Z,4.01
2017-02-02T07:02:21.329Z,3.88
2017-02-02T07:03:21.327Z,3.85
2017-02-02T07:04:21.362Z,3.85
2017-02-02T07:05:21.308Z,3.79
2017-02-02T07:06:21.394Z,3.72
2017-02-02T07:07:21.324Z,3.94
2017-02-02T07:08:21.374Z,3.72
2017-02-02T07:09:21.319Z,3.78
2017-02-02T07:10:21.316Z,3.83
2017-02-02T07:11:21.339Z,3.75
2017-02-02T07:12:21.333Z,3.79
2017-02-02T07:13:21.329Z,3.79
2017-02-02T07:14:21.341Z,3.88
2017-02-02T07:15:21.332Z,3.83
2017-02-02T07:16:21.342Z,3.79
2017-02-02T07:17:21.326Z,3.82
2017-02-02T07:18:21.348Z,3.75
2017-02-02T07:19:21.345Z,3.76
2017-02-02T07:20:21.324Z,3.86
2017-02-02T07:21:21.325Z,3.68
2017-02-02T07:22:21.334Z,3.68
2017-02-02T07:23:21.322Z,3.8
2017-02-02T07:24:21.342Z,3.8
2017-02-02T07:25:21.342Z,3.83
2017-02-02T07:26:21.329Z,4
2017-02-02T07:27:21.365Z,3.88
2017-02-02T07:28:21.331Z,3.86
2017-02-02T07:29:21.341Z,3.86
2017-02-02T07:30:21.351Z,3.92
2017-02-02T07:31:21.335Z,4.03
2017-02-02T07:32:21.353Z,4.01
2017-02-02T07:33:21.333Z,4
2017-02-02T07:34:21.339Z,4.01
2017-02-02T07:35:21.353Z,3.92
2017-02-02T07:36:21.329Z,4.16
2017-02-02T07:37:21.338Z,4.19
2017-02-02T07:38:21.343Z,4.07
2017-02-02T07:39:21.342Z,4.19
2017-02-02T07:40:21.341Z,4.16
2017-02-02T07:41:21.340Z,4.32
2017-02-02T07:42:21.352Z,4.28
2017-02-02T07:43:21.343Z,4.28
2017-02-02T07:44:21.367Z,4.37
2017-02-02T07:45:21.396Z,4.43
2017-02-02T07:46:21.352Z,4.52
2017-02-02T07:47:21.358Z,4.44
2017-02-02T07:48:21.399Z,4.54
2017-02-02T07:49:21.366Z,4.61
2017-02-02T07:50:21.355Z,4.67
2017-02-02T07:51:21.365Z,4.7
2017-02-02T07:52:21.360Z,4.76
2017-02-02T07:53:21.352Z,4.94
2017-02-02T07:54:21.372Z,4.99
2017-02-02T07:55:21.377Z,5.07
2017-02-02T07:56:21.381Z,5.22
2017-02-02T07:57:21.373Z,4.98
2017-02-02T07:58:21.384Z,5.25
2017-02-02T07:59:21.395Z,5.23
2017-02-02T08:00:21.350Z,5.34
2017-02-02T08:01:21.415Z,5.34
2017-02-02T08:02:21.435Z,5.57
2017-02-02T08:03:21.399Z,5.46
2017-02-02T08:04:21.372Z,5.63
2017-02-02T08:05:21.353Z,5.64
2017-02-02T08:06:21.374Z,5.68
2017-02-02T08:07:21.346Z,5.81
2017-02-02T08:08:21.355Z,5.96
2017-02-02T08:09:21.354Z,5.88
2017-02-02T08:10:21.359Z,6
2017-02-02T08:11:21.384Z,6.04
2017-02-02T08:12:21.369Z,6.01
2017-02-02T08:13:21.388Z,6.04
2017-02-02T08:14:21.380Z,6.03
2017-02-02T08:15:21.382Z,6.21
2017-02-02T08:16:21.363Z,6.1
2017-02-02T08:17:21.438Z,6.25
2017-02-02T08:18:21.381Z,6.32
2017-02-02T08:19:21.378Z,6.25
2017-02-02T08:20:21.447Z,6.28
2017-02-02T08:21:21.388Z,6.38
2017-02-02T08:22:21.497Z,6.36
2017-02-02T08:23:21.623Z,6.36
2017-02-02T08:24:21.512Z,6.54
2017-02-02T08:25:21.463Z,6.56
2017-02-02T08:26:21.424Z,6.58
2017-02-02T08:27:21.385Z,6.79
2017-02-02T08:28:21.380Z,6.62
2017-02-02T08:29:21.373Z,6.68
2017-02-02T08:30:21.366Z,6.8
2017-02-02T08:31:21.373Z,6.71
2017-02-02T08:32:21.373Z,6.76
2017-02-02T08:33:21.406Z,6.66
2017-02-02T08:34:21.382Z,6.66
2017-02-02T08:35:21.367Z,6.8
2017-02-02T08:36:21.379Z,6.83
2017-02-02T08:37:21.392Z,6.66
2017-02-02T08:38:21.379Z,6.77
2017-02-02T08:39:21.399Z,6.87
2017-02-02T08:40:21.390Z,6.72
2017-02-02T08:41:21.378Z,6.79
2017-02-02T08:42:21.417Z,6.77
2017-02-02T08:43:21.370Z,6.87
2017-02-02T08:44:21.401Z,6.9
2017-02-02T08:45:21.402Z,7.01
2017-02-02T08:46:21.390Z,6.84
2017-02-02T08:47:21.385Z,6.84
2017-02-02T08:48:21.391Z,6.98
2017-02-02T08:49:21.388Z,7.01
2017-02-02T08:50:21.382Z,6.95
2017-02-02T08:51:21.391Z,7.02
2017-02-02T08:52:21.392Z,7.08
2017-02-02T08:53:21.375Z,6.9
2017-02-02T08:54:21.389Z,6.98
2017-02-02T08:55:21.417Z,6.87
2017-02-02T08:56:21.397Z,6.84
2017-02-02T08:57:21.386Z,6.91
2017-02-02T08:58:21.394Z,6.81
2017-02-02T08:59:21.411Z,6.86
2017-02-02T09:00:21.438Z,6.83
2017-02-02T09:01:21.407Z,6.89
2017-02-02T09:02:21.412Z,6.76
2017-02-02T09:03:21.427Z,6.76
2017-02-02T09:04:21.422Z,6.72
2017-02-02T09:05:21.400Z,6.69
2017-02-02T09:06:21.407Z,6.76
2017-02-02T09:07:21.396Z,6.83
2017-02-02T09:08:21.420Z,6.81
2017-02-02T09:09:21.397Z,6.77
2017-02-02T09:10:21.421Z,6.83
2017-02-02T09:11:21.428Z,6.79
2017-02-02T09:12:21.440Z,6.72
2017-02-02T09:13:21.455Z,6.83
2017-02-02T09:14:21.419Z,6.97
2017-02-02T09:15:21.431Z,6.86
2017-02-02T09:16:21.418Z,6.9
2017-02-02T09:17:21.455Z,6.76
2017-02-02T09:18:21.402Z,6.69
2017-02-02T09:19:21.426Z,6.95
2017-02-02T09:20:21.439Z,6.91
2017-02-02T09:21:21.418Z,6.8
2017-02-02T09:22:21.406Z,6.84
2017-02-02T09:23:21.430Z,6.86
2017-02-02T09:24:21.425Z,7.05
2017-02-02T09:25:21.423Z,6.9
2017-02-02T09:26:21.437Z,6.87
2017-02-02T09:27:21.414Z,6.97
2017-02-02T09:28:21.416Z,7.05
2017-02-02T09:29:21.424Z,7.04
2017-02-02T09:30:21.418Z,7.07
2017-02-02T09:31:21.440Z,7.08
2017-02-02T09:32:21.456Z,7.15
2017-02-02T09:33:21.425Z,7.04
2017-02-02T09:34:21.443Z,7.17
2017-02-02T09:35:21.427Z,7.2
2017-02-02T09:36:21.444Z,7.24
2017-02-02T09:37:21.446Z,7.29
2017-02-02T09:38:21.462Z,7.31
2017-02-02T09:39:21.434Z,7.19
2017-02-02T09:40:21.513Z,7.37
2017-02-02T09:41:21.432Z,7.44
2017-02-02T09:42:21.436Z,7.52
2017-02-02T09:43:21.436Z,7.44
2017-02-02T09:44:21.485Z,7.42
2017-02-02T09:45:21.459Z,7.58
2017-02-02T09:46:21.448Z,7.66
2017-02-02T09:47:21.447Z,7.84
2017-02-02T09:48:21.440Z,7.71
2017-02-02T09:49:21.465Z,7.82
2017-02-02T09:50:21.479Z,7.77
2017-02-02T09:51:21.428Z,7.92
2017-02-02T09:52:21.511Z,7.87
2017-02-02T09:53:21.445Z,8
2017-02-02T09:54:21.430Z,8.07
2017-02-02T09:55:21.458Z,8.04
2017-02-02T09:56:21.436Z,8
2017-02-02T09:57:21.429Z,8.04
2017-02-02T09:58:21.459Z,8.25
2017-02-02T09:59:21.465Z,8.04
2017-02-02T10:00:21.449Z,8.15
2017-02-02T10:01:21.452Z,8.1
2017-02-02T10:02:21.436Z,8.22
2017-02-02T10:03:21.435Z,8.21
2017-02-02T10:04:21.514Z,8.36
2017-02-02T10:05:21.449Z,8.33
2017-02-02T10:06:21.443Z,8.45
2017-02-02T10:07:21.440Z,8.45
2017-02-02T10:08:21.467Z,8.47
2017-02-02T10:09:21.455Z,8.45
2017-02-02T10:10:21.439Z,8.57
2017-02-02T10:11:21.469Z,8.6
2017-02-02T10:12:21.450Z,8.54
2017-02-02T10:13:21.460Z,8.47
2017-02-02T10:14:21.463Z,8.54
2017-02-02T10:15:21.458Z,8.6
2017-02-02T10:16:21.470Z,8.55
2017-02-02T10:17:21.443Z,8.69
2017-02-02T10:18:21.464Z,8.62
2017-02-02T10:19:21.473Z,8.57
2017-02-02T10:20:21.485Z,8.63
2017-02-02T10:21:21.512Z,8.73
2017-02-02T10:22:21.489Z,8.71
2017-02-02T10:23:21.473Z,8.71
2017-02-02T10:24:21.464Z,8.84
2017-02-02T10:25:21.486Z,8.93
2017-02-02T10:26:21.475Z,8.9
2017-02-02T10:27:21.482Z,8.94
2017-02-02T10:28:21.458Z,9.01
2017-02-02T10:29:21.468Z,8.86
2017-02-02T10:30:21.488Z,8.99
2017-02-02T10:31:21.482Z,8.94
2017-02-02T10:32:21.465Z,8.96
2017-02-02T10:33:21.493Z,8.96
2017-02-02T10:34:21.474Z,9.06
2017-02-02T10:35:21.509Z,9.01
2017-02-02T10:36:21.471Z,9.09
2017-02-02T10:37:21.483Z,9.06
2017-02-02T10:38:21.516Z,9.23
2017-02-02T10:39:21.476Z,9.18
2017-02-02T10:40:21.471Z,9.27
2017-02-02T10:41:21.495Z,9.31
2017-02-02T10:42:21.482Z,9.32
2017-02-02T10:43:21.520Z,9.32
2017-02-02T10:44:21.481Z,9.38
2017-02-02T10:45:21.492Z,9.43
2017-02-02T10:46:21.481Z,9.35
2017-02-02T10:47:21.489Z,9.4
2017-02-02T10:48:21.477Z,9.4
2017-02-02T10:49:21.498Z,9.38
2017-02-02T10:50:21.481Z,9.5
2017-02-02T10:51:21.485Z,9.43
2017-02-02T10:52:21.479Z,9.57
2017-02-02T10:53:21.486Z,9.53
2017-02-02T10:54:21.489Z,9.61
2017-02-02T10:55:21.502Z,9.58
2017-02-02T10:56:21.566Z,9.57
2017-02-02T10:57:21.485Z,9.63
2017-02-02T10:58:21.472Z,9.68
2017-02-02T10:59:21.477Z,9.68
2017-02-02T11:00:21.508Z,9.81
2017-02-02T11:01:21.520Z,9.93
2017-02-02T11:02:21.530Z,9.78
2017-02-02T11:03:21.523Z,9.85
2017-02-02T11:04:21.496Z,9.82
2017-02-02T11:05:21.498Z,9.86
2017-02-02T11:06:21.499Z,9.88
2017-02-02T11:07:21.503Z,9.86
2017-02-02T11:08:21.501Z,9.96
2017-02-02T11:09:21.510Z,9.96
2017-02-02T11:10:21.585Z,10.01
2017-02-02T11:11:21.518Z,10.03
2017-02-02T11:12:22.431Z,9.97
2017-02-02T11:13:21.519Z,10.14
2017-02-02T11:14:21.505Z,9.99
2017-02-02T11:15:21.504Z,10.01
2017-02-02T11:16:21.525Z,10
2017-02-02T11:17:21.511Z,10
2017-02-02T11:18:21.521Z,9.96
2017-02-02T11:19:21.584Z,9.78
2017-02-02T11:20:21.531Z,9.94
2017-02-02T11:21:21.525Z,9.86
2017-02-02T11:22:21.545Z,10.03
2017-02-02T11:23:21.505Z,9.93
2017-02-02T11:24:21.518Z,9.78
2017-02-02T11:25:21.513Z,9.86
2017-02-02T11:26:21.566Z,9.75
2017-02-02T11:27:21.512Z,9.86
2017-02-02T11:28:21.530Z,9.79
2017-02-02T11:29:21.508Z,9.85
2017-02-02T11:30:21.557Z,9.81
2017-02-02T11:31:21.520Z,9.89
2017-02-02T11:32:21.513Z,9.97
2017-02-02T11:33:21.532Z,9.85
2017-02-02T11:34:21.538Z,9.89
2017-02-02T11:35:21.518Z,10.06
2017-02-02T11:36:21.510Z,10.17
2017-02-02T11:37:21.532Z,10.09
2017-02-02T11:38:21.511Z,10.18
2017-02-02T11:39:21.516Z,10.21
2017-02-02T11:40:21.535Z,10.32
2017-02-02T11:41:21.528Z,10.4
2017-02-02T11:42:21.544Z,10.42
2017-02-02T11:43:21.540Z,10.42
2017-02-02T11:44:21.515Z,10.51
2017-02-02T11:45:21.542Z,10.59
2017-02-02T11:46:21.559Z,10.66
2017-02-02T11:47:21.530Z,10.66
2017-02-02T11:48:21.515Z,10.71
2017-02-02T11:49:21.553Z,10.8
2017-02-02T11:50:21.547Z,10.71
2017-02-02T11:51:21.549Z,10.73
2017-02-02T11:52:21.534Z,10.86
2017-02-02T11:53:21.554Z,10.99
2017-02-02T11:54:21.535Z,11.02
2017-02-02T11:55:21.539Z,11.11
2017-02-02T11:56:21.541Z,11.01
2017-02-02T11:57:21.549Z,11.07
2017-02-02T11:58:21.532Z,10.96
2017-02-02T11:59:21.548Z,11.1
2017-02-02T12:00:21.542Z,11.11
2017-02-02T12:01:21.562Z,11.2
2017-02-02T12:02:21.553Z,11.27
2017-02-02T12:03:21.549Z,11.24
2017-02-02T12:04:21.542Z,11.35
2017-02-02T12:05:21.594Z,11.31
2017-02-02T12:06:21.539Z,11.29
2017-02-02T12:07:21.552Z,11.24
2017-02-02T12:08:21.590Z,11.36
2017-02-02T12:09:21.580Z,11.27
2017-02-02T12:10:21.551Z,11.35
2017-02-02T12:11:21.579Z,11.41
2017-02-02T12:12:21.569Z,11.44
2017-02-02T12:13:21.604Z,11.53
2017-02-02T12:14:21.570Z,11.5
2017-02-02T12:15:21.615Z,11.54
2017-02-02T12:16:24.063Z,11.57
2017-02-02T12:17:23.365Z,11.52
2017-02-02T12:18:23.824Z,11.57
2017-02-02T12:19:24.188Z,11.64
2017-02-02T12:20:24.100Z,11.71
2017-02-02T12:21:23.950Z,11.67
2017-02-02T12:22:23.407Z,11.72
2017-02-02T12:23:21.567Z,11.82
2017-02-02T12:24:21.557Z,11.74
2017-02-02T12:25:21.560Z,11.85
2017-02-02T12:26:21.561Z,11.96
2017-02-02T12:27:21.588Z,11.75
2017-02-02T12:28:21.555Z,11.87
2017-02-02T12:29:21.605Z,11.89
2017-02-02T12:30:23.644Z,11.97
2017-02-02T12:31:21.565Z,11.93
2017-02-02T12:32:21.577Z,11.93
2017-02-02T12:33:21.562Z,11.99
2017-02-02T12:34:21.562Z,11.94
2017-02-02T12:35:21.566Z,12.01
2017-02-02T12:36:21.577Z,12.06
2017-02-02T12:37:21.574Z,12.04
2017-02-02T12:38:21.600Z,12.11
2017-02-02T12:39:21.573Z,12.04
2017-02-02T12:40:21.593Z,12.13
2017-02-02T12:41:21.569Z,12.21
2017-02-02T12:42:21.586Z,12.21
2017-02-02T12:43:21.613Z,12.16
2017-02-02T12:44:21.579Z,12.29
2017-02-02T12:45:21.586Z,12.19
2017-02-02T12:46:21.567Z,12.23
2017-02-02T12:47:21.585Z,12.2
2017-02-02T12:48:21.600Z,12.23
2017-02-02T12:49:21.588Z,12.15
2017-02-02T12:50:21.588Z,12.23
2017-02-02T12:51:21.589Z,12.3
2017-02-02T12:52:21.601Z,12.34
2017-02-02T12:53:21.582Z,12.44
2017-02-02T12:54:21.605Z,12.46
2017-02-02T12:55:21.597Z,12.34
2017-02-02T12:56:21.589Z,12.39
2017-02-02T12:57:21.586Z,12.39
2017-02-02T12:58:21.581Z,12.46
2017-02-02T12:59:21.593Z,12.44
2017-02-02T13:00:21.602Z,12.46
2017-02-02T13:01:21.601Z,12.49
2017-02-02T13:02:21.627Z,12.39
2017-02-02T13:03:21.587Z,12.38
2017-02-02T13:04:21.612Z,12.3
2017-02-02T13:05:21.600Z,12.39
2017-02-02T13:06:21.593Z,12.39
2017-02-02T13:07:21.590Z,12.52
2017-02-02T13:08:21.591Z,12.48
2017-02-02T13:09:21.587Z,12.49
2017-02-02T13:10:21.626Z,12.49
2017-02-02T13:11:21.599Z,12.52
2017-02-02T13:12:21.607Z,12.42
2017-02-02T13:13:21.616Z,12.52
2017-02-02T13:14:21.648Z,12.63
2017-02-02T13:15:21.632Z,12.62
2017-02-02T13:16:21.618Z,12.66
2017-02-02T13:17:21.623Z,12.62
2017-02-02T13:18:21.617Z,12.56